sensor_id;sensor_type;location;lat;lon;timestamp;temperature;humidity
16980;DHT22;42288;52.182;21.156;2024-02-16T00:01:53;8.30;99.90
16980;DHT22;42288;52.182;21.156;2024-02-16T00:04:18;8.30;99.90
16980;DHT22;42288;52.182;21.156;2024-02-16T00:06:44;8.40;99.90
16980;DHT22;42288;52.182;21.156;2024-02-16T00:09:09;8.40;99.90
16980;DHT22;42288;52.182;21.156;2024-02-16T00:11:36;8.40;99.90
16980;DHT22;42288;52.182;21.156;2024-02-16T00:14:01;8.40;99.90
16980;DHT22;42288;52.182;21.156;2024-02-16T00:16:27;8.30;99.90
16980;DHT22;42288;52.182;21.156;2024-02-16T00:18:53;8.40;99.90
16980;DHT22;42288;52.182;21.156;2024-02-16T00:21:18;8.40;99.90
16980;DHT22;42288;52.182;21.156;2024-02-16T00:23:45;8.30;99.90
16980;DHT22;42288;52.182;21.156;2024-02-16T00:26:10;8.40;99.90
16980;DHT22;42288;52.182;21.156;2024-02-16T00:28:36;8.30;99.90
16980;DHT22;42288;52.182;21.156;2024-02-16T00:31:01;8.30;99.90
16980;DHT22;42288;52.182;21.156;2024-02-16T00:33:27;8.30;99.90
16980;DHT22;42288;52.182;21.156;2024-02-16T00:35:54;8.30;99.90
16980;DHT22;42288;52.182;21.156;2024-02-16T00:38:20;8.30;99.90
16980;DHT22;42288;52.182;21.156;2024-02-16T00:40:45;8.30;99.90
16980;DHT22;42288;52.182;21.156;2024-02-16T00:43:11;8.30;99.90
16980;DHT22;42288;52.182;21.156;2024-02-16T00:45:37;8.30;99.90
16980;DHT22;42288;52.182;21.156;2024-02-16T00:48:03;8.30;99.90
16980;DHT22;42288;52.182;21.156;2024-02-16T00:50:29;8.20;99.90
16980;DHT22;42288;52.182;21.156;2024-02-16T00:52:54;8.30;99.90
16980;DHT22;42288;52.182;21.156;2024-02-16T00:55:20;8.30;99.90
16980;DHT22;42288;52.182;21.156;2024-02-16T00:57:45;8.30;99.90
16980;DHT22;42288;52.182;21.156;2024-02-16T01:00:11;8.30;99.90
16980;DHT22;42288;52.182;21.156;2024-02-16T01:02:37;8.30;99.90
16980;DHT22;42288;52.182;21.156;2024-02-16T01:05:04;8.40;99.90
16980;DHT22;42288;52.182;21.156;2024-02-16T01:07:29;8.40;99.90
16980;DHT22;42288;52.182;21.156;2024-02-16T01:09:56;8.40;99.90
16980;DHT22;42288;52.182;21.156;2024-02-16T01:12:22;8.40;99.90
16980;DHT22;42288;52.182;21.156;2024-02-16T01:14:48;8.30;99.90
16980;DHT22;42288;52.182;21.156;2024-02-16T01:17:13;8.30;99.90
16980;DHT22;42288;52.182;21.156;2024-02-16T01:19:39;8.30;99.90
16980;DHT22;42288;52.182;21.156;2024-02-16T01:22:05;8.30;99.90
16980;DHT22;42288;52.182;21.156;2024-02-16T01:24:31;8.30;99.90
16980;DHT22;42288;52.182;21.156;2024-02-16T01:26:57;8.30;99.90
16980;DHT22;42288;52.182;21.156;2024-02-16T01:29:23;8.20;99.90
16980;DHT22;42288;52.182;21.156;2024-02-16T01:31:48;8.10;99.90
16980;DHT22;42288;52.182;21.156;2024-02-16T01:34:14;8.10;99.90
16980;DHT22;42288;52.182;21.156;2024-02-16T01:36:40;8.10;99.90
16980;DHT22;42288;52.182;21.156;2024-02-16T01:39:05;8.00;99.90
16980;DHT22;42288;52.182;21.156;2024-02-16T01:41:32;8.00;99.90
16980;DHT22;42288;52.182;21.156;2024-02-16T01:43:58;8.00;99.90
16980;DHT22;42288;52.182;21.156;2024-02-16T01:46:24;7.90;99.90
16980;DHT22;42288;52.182;21.156;2024-02-16T01:48:50;7.90;99.90
16980;DHT22;42288;52.182;21.156;2024-02-16T01:51:17;7.80;99.90
16980;DHT22;42288;52.182;21.156;2024-02-16T01:53:42;7.80;99.90
16980;DHT22;42288;52.182;21.156;2024-02-16T01:56:08;7.70;99.90
16980;DHT22;42288;52.182;21.156;2024-02-16T01:58:34;7.70;99.90
16980;DHT22;42288;52.182;21.156;2024-02-16T02:00:59;7.70;99.90
16980;DHT22;42288;52.182;21.156;2024-02-16T02:03:25;7.70;99.90
16980;DHT22;42288;52.182;21.156;2024-02-16T02:05:51;7.60;99.90
16980;DHT22;42288;52.182;21.156;2024-02-16T02:08:19;7.60;99.90
16980;DHT22;42288;52.182;21.156;2024-02-16T02:10:45;7.60;99.90
16980;DHT22;42288;52.182;21.156;2024-02-16T02:13:10;7.50;99.90
16980;DHT22;42288;52.182;21.156;2024-02-16T02:15:36;7.50;99.90
16980;DHT22;42288;52.182;21.156;2024-02-16T02:18:02;7.50;99.90
16980;DHT22;42288;52.182;21.156;2024-02-16T02:20:27;7.40;99.90
16980;DHT22;42288;52.182;21.156;2024-02-16T02:22:53;7.40;99.90
16980;DHT22;42288;52.182;21.156;2024-02-16T02:25:18;7.40;99.90
16980;DHT22;42288;52.182;21.156;2024-02-16T02:27:44;7.40;99.90
16980;DHT22;42288;52.182;21.156;2024-02-16T02:30:11;7.30;99.90
16980;DHT22;42288;52.182;21.156;2024-02-16T02:32:36;7.40;99.90
16980;DHT22;42288;52.182;21.156;2024-02-16T02:35:03;7.30;99.90
16980;DHT22;42288;52.182;21.156;2024-02-16T02:37:29;7.30;99.90
16980;DHT22;42288;52.182;21.156;2024-02-16T02:39:55;7.30;99.90
16980;DHT22;42288;52.182;21.156;2024-02-16T02:42:22;7.20;99.90
16980;DHT22;42288;52.182;21.156;2024-02-16T02:44:48;7.10;99.90
16980;DHT22;42288;52.182;21.156;2024-02-16T02:47:16;7.10;99.90
16980;DHT22;42288;52.182;21.156;2024-02-16T02:49:45;7.10;99.90
16980;DHT22;42288;52.182;21.156;2024-02-16T02:52:10;7.10;99.90
16980;DHT22;42288;52.182;21.156;2024-02-16T02:54:36;7.10;99.90
16980;DHT22;42288;52.182;21.156;2024-02-16T02:57:02;7.00;99.90
16980;DHT22;42288;52.182;21.156;2024-02-16T02:59:28;7.00;99.90
16980;DHT22;42288;52.182;21.156;2024-02-16T03:01:53;7.00;99.90
16980;DHT22;42288;52.182;21.156;2024-02-16T03:04:19;7.00;99.90
16980;DHT22;42288;52.182;21.156;2024-02-16T03:06:44;7.00;99.90
16980;DHT22;42288;52.182;21.156;2024-02-16T03:09:11;7.00;99.90
16980;DHT22;42288;52.182;21.156;2024-02-16T03:11:38;6.90;99.90
16980;DHT22;42288;52.182;21.156;2024-02-16T03:14:03;7.00;99.90
16980;DHT22;42288;52.182;21.156;2024-02-16T03:16:30;6.90;99.90
16980;DHT22;42288;52.182;21.156;2024-02-16T03:18:56;7.00;99.90
16980;DHT22;42288;52.182;21.156;2024-02-16T03:21:22;6.90;99.90
16980;DHT22;42288;52.182;21.156;2024-02-16T03:23:47;6.90;99.90
16980;DHT22;42288;52.182;21.156;2024-02-16T03:26:17;6.80;99.90
16980;DHT22;42288;52.182;21.156;2024-02-16T03:28:46;6.90;99.90
16980;DHT22;42288;52.182;21.156;2024-02-16T03:31:20;6.80;99.90
16980;DHT22;42288;52.182;21.156;2024-02-16T03:33:47;6.80;99.90
16980;DHT22;42288;52.182;21.156;2024-02-16T03:36:13;6.80;99.90
16980;DHT22;42288;52.182;21.156;2024-02-16T03:38:46;6.80;99.90
16980;DHT22;42288;52.182;21.156;2024-02-16T03:41:18;6.80;99.90
16980;DHT22;42288;52.182;21.156;2024-02-16T03:43:44;6.80;99.90
16980;DHT22;42288;52.182;21.156;2024-02-16T03:46:10;6.70;99.90
16980;DHT22;42288;52.182;21.156;2024-02-16T03:48:36;6.70;99.90
16980;DHT22;42288;52.182;21.156;2024-02-16T03:51:02;6.60;99.90
16980;DHT22;42288;52.182;21.156;2024-02-16T03:53:30;6.60;99.90
16980;DHT22;42288;52.182;21.156;2024-02-16T03:55:56;6.60;99.90
16980;DHT22;42288;52.182;21.156;2024-02-16T03:58:22;6.60;99.90
16980;DHT22;42288;52.182;21.156;2024-02-16T04:00:48;6.50;99.90
16980;DHT22;42288;52.182;21.156;2024-02-16T04:03:18;6.60;99.90
16980;DHT22;42288;52.182;21.156;2024-02-16T04:05:44;6.50;99.90
16980;DHT22;42288;52.182;21.156;2024-02-16T04:08:10;6.50;99.90
16980;DHT22;42288;52.182;21.156;2024-02-16T04:10:35;6.40;99.90
16980;DHT22;42288;52.182;21.156;2024-02-16T04:13:02;6.40;99.90
16980;DHT22;42288;52.182;21.156;2024-02-16T04:15:27;6.40;99.90
16980;DHT22;42288;52.182;21.156;2024-02-16T04:17:53;6.40;99.90
16980;DHT22;42288;52.182;21.156;2024-02-16T04:20:19;6.30;99.90
16980;DHT22;42288;52.182;21.156;2024-02-16T04:22:45;6.40;99.90
16980;DHT22;42288;52.182;21.156;2024-02-16T04:25:11;6.30;99.90
16980;DHT22;42288;52.182;21.156;2024-02-16T04:27:37;6.30;99.90
16980;DHT22;42288;52.182;21.156;2024-02-16T04:30:03;6.30;99.90
16980;DHT22;42288;52.182;21.156;2024-02-16T04:32:29;6.30;99.90
16980;DHT22;42288;52.182;21.156;2024-02-16T04:34:55;6.20;99.90
16980;DHT22;42288;52.182;21.156;2024-02-16T04:37:25;6.30;99.90
16980;DHT22;42288;52.182;21.156;2024-02-16T04:39:51;6.20;99.90
16980;DHT22;42288;52.182;21.156;2024-02-16T04:42:17;6.20;99.90
16980;DHT22;42288;52.182;21.156;2024-02-16T04:44:42;6.20;99.90
16980;DHT22;42288;52.182;21.156;2024-02-16T04:47:08;6.20;99.90
16980;DHT22;42288;52.182;21.156;2024-02-16T04:49:34;6.10;99.90
16980;DHT22;42288;52.182;21.156;2024-02-16T04:52:00;6.10;99.90
16980;DHT22;42288;52.182;21.156;2024-02-16T04:54:26;6.10;99.90
16980;DHT22;42288;52.182;21.156;2024-02-16T04:56:51;6.10;99.90
16980;DHT22;42288;52.182;21.156;2024-02-16T04:59:17;6.10;99.90
16980;DHT22;42288;52.182;21.156;2024-02-16T05:01:43;6.00;99.90
16980;DHT22;42288;52.182;21.156;2024-02-16T05:04:10;6.00;99.90
16980;DHT22;42288;52.182;21.156;2024-02-16T05:06:40;6.00;99.90
16980;DHT22;42288;52.182;21.156;2024-02-16T05:09:06;6.00;99.90
16980;DHT22;42288;52.182;21.156;2024-02-16T05:11:32;6.00;99.90
16980;DHT22;42288;52.182;21.156;2024-02-16T05:13:58;6.00;99.90
16980;DHT22;42288;52.182;21.156;2024-02-16T05:16:24;5.90;99.90
16980;DHT22;42288;52.182;21.156;2024-02-16T05:18:49;5.90;99.90
16980;DHT22;42288;52.182;21.156;2024-02-16T05:21:16;5.90;99.90
16980;DHT22;42288;52.182;21.156;2024-02-16T05:23:41;5.90;99.90
16980;DHT22;42288;52.182;21.156;2024-02-16T05:26:07;5.90;99.90
16980;DHT22;42288;52.182;21.156;2024-02-16T05:28:33;5.80;99.90
16980;DHT22;42288;52.182;21.156;2024-02-16T05:31:12;5.80;99.90
16980;DHT22;42288;52.182;21.156;2024-02-16T05:33:40;5.80;99.90
16980;DHT22;42288;52.182;21.156;2024-02-16T05:36:06;5.80;99.90
16980;DHT22;42288;52.182;21.156;2024-02-16T05:38:32;5.70;99.90
16980;DHT22;42288;52.182;21.156;2024-02-16T05:41:00;5.80;99.90
16980;DHT22;42288;52.182;21.156;2024-02-16T05:43:26;5.80;99.90
16980;DHT22;42288;52.182;21.156;2024-02-16T05:45:51;5.80;99.90
16980;DHT22;42288;52.182;21.156;2024-02-16T05:48:17;5.80;99.90
16980;DHT22;42288;52.182;21.156;2024-02-16T05:50:42;5.70;99.90
16980;DHT22;42288;52.182;21.156;2024-02-16T05:53:11;5.80;99.90
16980;DHT22;42288;52.182;21.156;2024-02-16T05:55:37;5.80;99.90
16980;DHT22;42288;52.182;21.156;2024-02-16T05:58:02;5.80;99.90
16980;DHT22;42288;52.182;21.156;2024-02-16T06:00:32;5.80;99.90
16980;DHT22;42288;52.182;21.156;2024-02-16T06:02:58;5.80;99.90
16980;DHT22;42288;52.182;21.156;2024-02-16T06:05:23;5.80;99.90
16980;DHT22;42288;52.182;21.156;2024-02-16T06:07:49;5.80;99.90
16980;DHT22;42288;52.182;21.156;2024-02-16T06:10:15;5.80;99.90
16980;DHT22;42288;52.182;21.156;2024-02-16T06:12:40;5.80;99.90
16980;DHT22;42288;52.182;21.156;2024-02-16T06:15:06;5.80;99.90
16980;DHT22;42288;52.182;21.156;2024-02-16T06:17:32;5.90;99.90
16980;DHT22;42288;52.182;21.156;2024-02-16T06:19:58;5.80;99.90
16980;DHT22;42288;52.182;21.156;2024-02-16T06:22:23;5.80;99.90
16980;DHT22;42288;52.182;21.156;2024-02-16T06:24:49;5.90;99.90
16980;DHT22;42288;52.182;21.156;2024-02-16T06:27:14;5.90;99.90
16980;DHT22;42288;52.182;21.156;2024-02-16T06:29:41;5.90;99.90
16980;DHT22;42288;52.182;21.156;2024-02-16T06:32:07;5.90;99.90
16980;DHT22;42288;52.182;21.156;2024-02-16T06:34:32;6.00;99.90
16980;DHT22;42288;52.182;21.156;2024-02-16T06:36:58;6.00;99.90
16980;DHT22;42288;52.182;21.156;2024-02-16T06:39:24;6.00;99.90
16980;DHT22;42288;52.182;21.156;2024-02-16T06:41:49;6.00;99.90
16980;DHT22;42288;52.182;21.156;2024-02-16T06:44:16;6.00;99.90
16980;DHT22;42288;52.182;21.156;2024-02-16T06:46:42;6.10;99.90
16980;DHT22;42288;52.182;21.156;2024-02-16T06:49:08;6.10;99.90
16980;DHT22;42288;52.182;21.156;2024-02-16T06:51:33;6.10;99.90
16980;DHT22;42288;52.182;21.156;2024-02-16T06:53:59;6.20;99.90
16980;DHT22;42288;52.182;21.156;2024-02-16T06:56:25;6.30;99.90
16980;DHT22;42288;52.182;21.156;2024-02-16T06:58:50;6.30;99.90
16980;DHT22;42288;52.182;21.156;2024-02-16T07:01:16;6.40;99.90
16980;DHT22;42288;52.182;21.156;2024-02-16T07:03:44;6.40;99.90
16980;DHT22;42288;52.182;21.156;2024-02-16T07:06:09;6.40;99.90
16980;DHT22;42288;52.182;21.156;2024-02-16T07:08:41;6.50;99.90
16980;DHT22;42288;52.182;21.156;2024-02-16T07:11:08;6.50;99.90
16980;DHT22;42288;52.182;21.156;2024-02-16T07:13:34;6.60;99.90
16980;DHT22;42288;52.182;21.156;2024-02-16T07:15:59;6.60;99.90
16980;DHT22;42288;52.182;21.156;2024-02-16T07:18:25;6.60;99.90
16980;DHT22;42288;52.182;21.156;2024-02-16T07:20:51;6.60;99.90
16980;DHT22;42288;52.182;21.156;2024-02-16T07:23:16;6.70;99.90
16980;DHT22;42288;52.182;21.156;2024-02-16T07:25:43;6.70;99.90
16980;DHT22;42288;52.182;21.156;2024-02-16T07:28:08;6.70;99.90
16980;DHT22;42288;52.182;21.156;2024-02-16T07:30:36;6.80;99.90
16980;DHT22;42288;52.182;21.156;2024-02-16T07:33:07;6.80;99.90
16980;DHT22;42288;52.182;21.156;2024-02-16T07:35:36;6.80;99.90
16980;DHT22;42288;52.182;21.156;2024-02-16T07:38:03;6.80;99.90
16980;DHT22;42288;52.182;21.156;2024-02-16T07:40:29;6.90;99.90
16980;DHT22;42288;52.182;21.156;2024-02-16T07:42:56;7.00;99.90
16980;DHT22;42288;52.182;21.156;2024-02-16T07:45:22;7.00;99.90
16980;DHT22;42288;52.182;21.156;2024-02-16T07:47:47;7.10;99.90
16980;DHT22;42288;52.182;21.156;2024-02-16T07:50:13;7.10;99.90
16980;DHT22;42288;52.182;21.156;2024-02-16T07:52:39;7.10;99.90
16980;DHT22;42288;52.182;21.156;2024-02-16T07:55:08;7.20;99.90
16980;DHT22;42288;52.182;21.156;2024-02-16T07:57:34;7.20;99.90
16980;DHT22;42288;52.182;21.156;2024-02-16T08:00:00;7.30;99.90
16980;DHT22;42288;52.182;21.156;2024-02-16T08:02:25;7.30;99.90
16980;DHT22;42288;52.182;21.156;2024-02-16T08:04:51;7.30;99.90
16980;DHT22;42288;52.182;21.156;2024-02-16T08:07:17;7.30;99.90
16980;DHT22;42288;52.182;21.156;2024-02-16T08:09:46;7.40;99.90
16980;DHT22;42288;52.182;21.156;2024-02-16T08:12:12;7.50;99.90
16980;DHT22;42288;52.182;21.156;2024-02-16T08:14:39;7.60;99.90
16980;DHT22;42288;52.182;21.156;2024-02-16T08:17:06;7.60;99.90
16980;DHT22;42288;52.182;21.156;2024-02-16T08:19:34;7.60;99.90
16980;DHT22;42288;52.182;21.156;2024-02-16T08:22:00;7.70;99.90
16980;DHT22;42288;52.182;21.156;2024-02-16T08:24:26;7.70;99.90
16980;DHT22;42288;52.182;21.156;2024-02-16T08:26:52;7.80;99.90
16980;DHT22;42288;52.182;21.156;2024-02-16T08:29:18;7.80;99.90
16980;DHT22;42288;52.182;21.156;2024-02-16T08:31:43;7.90;99.90
16980;DHT22;42288;52.182;21.156;2024-02-16T08:34:09;7.90;99.90
16980;DHT22;42288;52.182;21.156;2024-02-16T08:36:36;7.90;99.90
16980;DHT22;42288;52.182;21.156;2024-02-16T08:39:03;8.00;99.90
16980;DHT22;42288;52.182;21.156;2024-02-16T08:41:28;8.10;99.90
16980;DHT22;42288;52.182;21.156;2024-02-16T08:43:54;8.20;99.90
16980;DHT22;42288;52.182;21.156;2024-02-16T08:46:22;8.20;99.90
16980;DHT22;42288;52.182;21.156;2024-02-16T08:48:48;8.40;99.90
16980;DHT22;42288;52.182;21.156;2024-02-16T08:51:14;8.40;99.90
16980;DHT22;42288;52.182;21.156;2024-02-16T08:53:40;8.60;99.90
16980;DHT22;42288;52.182;21.156;2024-02-16T08:56:09;8.60;99.90
16980;DHT22;42288;52.182;21.156;2024-02-16T08:58:37;8.60;99.90
16980;DHT22;42288;52.182;21.156;2024-02-16T09:01:02;8.70;99.90
16980;DHT22;42288;52.182;21.156;2024-02-16T09:03:28;8.80;99.90
16980;DHT22;42288;52.182;21.156;2024-02-16T09:05:53;8.80;99.90
16980;DHT22;42288;52.182;21.156;2024-02-16T09:08:19;9.00;99.90
16980;DHT22;42288;52.182;21.156;2024-02-16T09:10:44;9.10;99.90
16980;DHT22;42288;52.182;21.156;2024-02-16T09:13:10;9.20;99.90
16980;DHT22;42288;52.182;21.156;2024-02-16T09:15:36;9.40;99.90
16980;DHT22;42288;52.182;21.156;2024-02-16T09:18:02;9.40;99.90
16980;DHT22;42288;52.182;21.156;2024-02-16T09:20:28;9.50;99.90
16980;DHT22;42288;52.182;21.156;2024-02-16T09:22:54;9.60;99.90
16980;DHT22;42288;52.182;21.156;2024-02-16T09:25:19;9.80;99.90
16980;DHT22;42288;52.182;21.156;2024-02-16T09:27:46;9.90;99.90
16980;DHT22;42288;52.182;21.156;2024-02-16T09:30:12;9.90;99.90
16980;DHT22;42288;52.182;21.156;2024-02-16T09:32:41;10.10;99.90
16980;DHT22;42288;52.182;21.156;2024-02-16T09:35:09;10.20;99.90
16980;DHT22;42288;52.182;21.156;2024-02-16T09:37:39;10.30;99.90
16980;DHT22;42288;52.182;21.156;2024-02-16T09:40:05;10.40;99.90
16980;DHT22;42288;52.182;21.156;2024-02-16T09:42:32;10.50;99.90
16980;DHT22;42288;52.182;21.156;2024-02-16T09:45:00;10.70;99.90
16980;DHT22;42288;52.182;21.156;2024-02-16T09:47:27;10.70;99.90
16980;DHT22;42288;52.182;21.156;2024-02-16T09:49:55;10.80;99.90
16980;DHT22;42288;52.182;21.156;2024-02-16T09:52:21;10.80;99.90
16980;DHT22;42288;52.182;21.156;2024-02-16T09:54:47;10.90;99.90
16980;DHT22;42288;52.182;21.156;2024-02-16T09:57:17;11.00;99.90
16980;DHT22;42288;52.182;21.156;2024-02-16T09:59:43;11.20;99.90
16980;DHT22;42288;52.182;21.156;2024-02-16T10:02:08;11.30;99.90
16980;DHT22;42288;52.182;21.156;2024-02-16T10:04:34;11.40;99.90
16980;DHT22;42288;52.182;21.156;2024-02-16T10:07:01;11.60;99.90
16980;DHT22;42288;52.182;21.156;2024-02-16T10:09:28;11.90;99.90
16980;DHT22;42288;52.182;21.156;2024-02-16T10:11:57;12.10;99.90
16980;DHT22;42288;52.182;21.156;2024-02-16T10:14:23;12.40;99.90
16980;DHT22;42288;52.182;21.156;2024-02-16T10:17:04;12.90;99.90
16980;DHT22;42288;52.182;21.156;2024-02-16T10:19:30;13.20;99.90
16980;DHT22;42288;52.182;21.156;2024-02-16T10:22:12;13.70;99.90
16980;DHT22;42288;52.182;21.156;2024-02-16T10:24:38;14.20;99.90
16980;DHT22;42288;52.182;21.156;2024-02-16T10:27:05;14.50;99.90
16980;DHT22;42288;52.182;21.156;2024-02-16T10:29:32;14.90;99.90
16980;DHT22;42288;52.182;21.156;2024-02-16T10:31:59;15.10;99.90
16980;DHT22;42288;52.182;21.156;2024-02-16T10:34:25;15.50;99.90
16980;DHT22;42288;52.182;21.156;2024-02-16T10:36:54;15.70;99.90
16980;DHT22;42288;52.182;21.156;2024-02-16T10:39:20;16.10;99.90
16980;DHT22;42288;52.182;21.156;2024-02-16T10:41:46;16.50;99.90
16980;DHT22;42288;52.182;21.156;2024-02-16T10:44:14;16.90;99.90
16980;DHT22;42288;52.182;21.156;2024-02-16T10:46:40;16.90;99.90
16980;DHT22;42288;52.182;21.156;2024-02-16T10:49:05;17.10;99.90
16980;DHT22;42288;52.182;21.156;2024-02-16T10:54:00;17.70;99.90
16980;DHT22;42288;52.182;21.156;2024-02-16T10:56:28;17.50;99.90
16980;DHT22;42288;52.182;21.156;2024-02-16T10:59:00;17.80;99.90
16980;DHT22;42288;52.182;21.156;2024-02-16T11:01:26;17.90;99.90
16980;DHT22;42288;52.182;21.156;2024-02-16T11:04:01;18.20;99.90
16980;DHT22;42288;52.182;21.156;2024-02-16T11:06:28;18.40;99.90
16980;DHT22;42288;52.182;21.156;2024-02-16T11:08:53;18.30;99.90
16980;DHT22;42288;52.182;21.156;2024-02-16T11:11:25;18.30;99.90
16980;DHT22;42288;52.182;21.156;2024-02-16T11:13:54;18.20;99.90
16980;DHT22;42288;52.182;21.156;2024-02-16T11:16:20;18.30;99.90
16980;DHT22;42288;52.182;21.156;2024-02-16T11:18:47;18.20;99.90
16980;DHT22;42288;52.182;21.156;2024-02-16T11:21:17;17.80;99.90
16980;DHT22;42288;52.182;21.156;2024-02-16T11:23:44;17.60;99.90
16980;DHT22;42288;52.182;21.156;2024-02-16T11:26:11;17.30;99.90
16980;DHT22;42288;52.182;21.156;2024-02-16T11:28:39;17.00;99.90
16980;DHT22;42288;52.182;21.156;2024-02-16T11:31:05;17.20;99.90
16980;DHT22;42288;52.182;21.156;2024-02-16T11:33:32;17.10;99.90
16980;DHT22;42288;52.182;21.156;2024-02-16T11:35:59;17.00;99.90
16980;DHT22;42288;52.182;21.156;2024-02-16T11:38:26;16.90;99.90
16980;DHT22;42288;52.182;21.156;2024-02-16T11:40:59;16.70;99.90
16980;DHT22;42288;52.182;21.156;2024-02-16T11:43:25;16.10;99.90
16980;DHT22;42288;52.182;21.156;2024-02-16T11:45:51;15.90;99.90
16980;DHT22;42288;52.182;21.156;2024-02-16T11:48:25;15.60;99.90
16980;DHT22;42288;52.182;21.156;2024-02-16T11:50:59;15.40;99.90
16980;DHT22;42288;52.182;21.156;2024-02-16T11:53:25;15.50;99.90
16980;DHT22;42288;52.182;21.156;2024-02-16T11:55:51;15.30;99.90
16980;DHT22;42288;52.182;21.156;2024-02-16T11:58:17;15.20;99.90
16980;DHT22;42288;52.182;21.156;2024-02-16T12:00:47;15.00;99.90
16980;DHT22;42288;52.182;21.156;2024-02-16T12:03:18;14.90;99.90
16980;DHT22;42288;52.182;21.156;2024-02-16T12:05:55;14.90;99.90
16980;DHT22;42288;52.182;21.156;2024-02-16T12:08:21;14.80;99.90
16980;DHT22;42288;52.182;21.156;2024-02-16T12:10:51;14.90;99.90
16980;DHT22;42288;52.182;21.156;2024-02-16T12:13:17;14.70;99.90
16980;DHT22;42288;52.182;21.156;2024-02-16T12:15:47;14.70;99.90
16980;DHT22;42288;52.182;21.156;2024-02-16T12:18:22;14.50;99.90
16980;DHT22;42288;52.182;21.156;2024-02-16T12:21:02;14.30;99.90
16980;DHT22;42288;52.182;21.156;2024-02-16T12:23:29;14.30;99.90
16980;DHT22;42288;52.182;21.156;2024-02-16T12:25:56;14.30;99.90
16980;DHT22;42288;52.182;21.156;2024-02-16T12:28:26;14.30;99.90
16980;DHT22;42288;52.182;21.156;2024-02-16T12:30:56;14.60;99.90
16980;DHT22;42288;52.182;21.156;2024-02-16T12:33:22;14.80;99.90
16980;DHT22;42288;52.182;21.156;2024-02-16T12:35:48;14.90;99.90
16980;DHT22;42288;52.182;21.156;2024-02-16T12:38:13;15.10;99.90
16980;DHT22;42288;52.182;21.156;2024-02-16T12:40:42;15.30;99.90
16980;DHT22;42288;52.182;21.156;2024-02-16T12:43:08;15.10;99.90
16980;DHT22;42288;52.182;21.156;2024-02-16T12:45:36;15.20;99.90
16980;DHT22;42288;52.182;21.156;2024-02-16T12:48:02;15.30;99.90
16980;DHT22;42288;52.182;21.156;2024-02-16T12:50:32;15.30;99.90
16980;DHT22;42288;52.182;21.156;2024-02-16T12:52:57;15.50;99.90
16980;DHT22;42288;52.182;21.156;2024-02-16T12:55:24;15.60;99.90
16980;DHT22;42288;52.182;21.156;2024-02-16T12:57:50;15.40;99.90
16980;DHT22;42288;52.182;21.156;2024-02-16T13:00:17;15.20;99.90
16980;DHT22;42288;52.182;21.156;2024-02-16T13:02:43;15.50;99.90
16980;DHT22;42288;52.182;21.156;2024-02-16T13:05:09;15.50;99.90
16980;DHT22;42288;52.182;21.156;2024-02-16T13:07:36;15.50;99.90
16980;DHT22;42288;52.182;21.156;2024-02-16T13:10:03;15.30;99.90
16980;DHT22;42288;52.182;21.156;2024-02-16T13:12:29;15.30;99.90
16980;DHT22;42288;52.182;21.156;2024-02-16T13:14:54;15.40;99.90
16980;DHT22;42288;52.182;21.156;2024-02-16T13:17:20;15.10;99.90
16980;DHT22;42288;52.182;21.156;2024-02-16T13:19:45;15.20;99.90
16980;DHT22;42288;52.182;21.156;2024-02-16T13:22:11;15.20;99.90
16980;DHT22;42288;52.182;21.156;2024-02-16T13:24:36;15.20;99.90
16980;DHT22;42288;52.182;21.156;2024-02-16T13:27:02;15.40;99.90
16980;DHT22;42288;52.182;21.156;2024-02-16T13:29:27;15.20;99.90
16980;DHT22;42288;52.182;21.156;2024-02-16T13:31:53;15.20;99.90
16980;DHT22;42288;52.182;21.156;2024-02-16T13:34:19;15.00;99.90
16980;DHT22;42288;52.182;21.156;2024-02-16T13:36:44;15.00;99.90
16980;DHT22;42288;52.182;21.156;2024-02-16T13:39:10;14.90;99.90
16980;DHT22;42288;52.182;21.156;2024-02-16T13:41:35;14.90;99.90
16980;DHT22;42288;52.182;21.156;2024-02-16T13:44:01;14.70;99.90
16980;DHT22;42288;52.182;21.156;2024-02-16T13:46:27;14.60;99.90
16980;DHT22;42288;52.182;21.156;2024-02-16T13:48:52;14.70;99.90
16980;DHT22;42288;52.182;21.156;2024-02-16T13:51:18;14.60;99.90
16980;DHT22;42288;52.182;21.156;2024-02-16T13:53:44;14.40;99.90
16980;DHT22;42288;52.182;21.156;2024-02-16T13:56:10;14.30;99.90
16980;DHT22;42288;52.182;21.156;2024-02-16T13:58:35;14.30;99.90
16980;DHT22;42288;52.182;21.156;2024-02-16T14:01:02;14.30;99.90
16980;DHT22;42288;52.182;21.156;2024-02-16T14:03:32;14.30;99.90
16980;DHT22;42288;52.182;21.156;2024-02-16T14:05:59;14.20;99.90
16980;DHT22;42288;52.182;21.156;2024-02-16T14:08:24;14.20;99.90
16980;DHT22;42288;52.182;21.156;2024-02-16T14:10:50;14.20;99.90
16980;DHT22;42288;52.182;21.156;2024-02-16T14:13:16;14.10;99.90
16980;DHT22;42288;52.182;21.156;2024-02-16T14:15:41;13.90;99.90
16980;DHT22;42288;52.182;21.156;2024-02-16T14:18:07;13.90;99.90
16980;DHT22;42288;52.182;21.156;2024-02-16T14:20:33;13.90;99.90
16980;DHT22;42288;52.182;21.156;2024-02-16T14:22:59;13.80;99.90
16980;DHT22;42288;52.182;21.156;2024-02-16T14:25:24;13.80;99.90
16980;DHT22;42288;52.182;21.156;2024-02-16T14:27:51;13.80;99.90
16980;DHT22;42288;52.182;21.156;2024-02-16T14:30:16;13.90;99.90
16980;DHT22;42288;52.182;21.156;2024-02-16T14:32:42;14.10;99.90
16980;DHT22;42288;52.182;21.156;2024-02-16T14:35:08;14.10;99.90
16980;DHT22;42288;52.182;21.156;2024-02-16T14:37:33;14.00;99.90
16980;DHT22;42288;52.182;21.156;2024-02-16T14:39:59;13.90;99.90
16980;DHT22;42288;52.182;21.156;2024-02-16T14:42:26;13.70;99.90
16980;DHT22;42288;52.182;21.156;2024-02-16T14:44:52;13.60;99.90
16980;DHT22;42288;52.182;21.156;2024-02-16T14:47:18;13.70;99.90
16980;DHT22;42288;52.182;21.156;2024-02-16T14:49:43;13.80;99.90
16980;DHT22;42288;52.182;21.156;2024-02-16T14:52:09;14.10;99.90
16980;DHT22;42288;52.182;21.156;2024-02-16T14:54:35;14.20;99.90
16980;DHT22;42288;52.182;21.156;2024-02-16T14:57:00;14.20;99.90
16980;DHT22;42288;52.182;21.156;2024-02-16T14:59:26;14.00;99.90
16980;DHT22;42288;52.182;21.156;2024-02-16T15:01:52;13.80;99.90
16980;DHT22;42288;52.182;21.156;2024-02-16T15:04:18;13.60;99.90
16980;DHT22;42288;52.182;21.156;2024-02-16T15:06:43;13.50;99.90
16980;DHT22;42288;52.182;21.156;2024-02-16T15:09:09;13.40;99.90
16980;DHT22;42288;52.182;21.156;2024-02-16T15:11:35;13.30;99.90
16980;DHT22;42288;52.182;21.156;2024-02-16T15:14:03;13.10;99.90
16980;DHT22;42288;52.182;21.156;2024-02-16T15:16:29;13.00;99.90
16980;DHT22;42288;52.182;21.156;2024-02-16T15:18:54;12.90;99.90
16980;DHT22;42288;52.182;21.156;2024-02-16T15:21:20;12.80;99.90
16980;DHT22;42288;52.182;21.156;2024-02-16T15:23:46;12.70;99.90